sensor_id;sensor_type;location;lat;lon;timestamp;P1;durP1;ratioP1;P2;durP2;ratioP2
28958;SDS011;16066;0.000;0.000;2023-07-28T05:32:06;5.53;;;1.33;;
28958;SDS011;16066;0.000;0.000;2023-07-28T05:34:32;2.30;;;1.20;;
28958;SDS011;16066;0.000;0.000;2023-07-28T05:36:58;4.70;;;1.30;;
28958;SDS011;16066;0.000;0.000;2023-07-28T05:39:23;7.30;;;1.10;;
28958;SDS011;16066;0.000;0.000;2023-07-28T05:41:49;4.60;;;1.50;;
28958;SDS011;16066;0.000;0.000;2023-07-28T05:44:15;3.47;;;1.33;;
28958;SDS011;16066;0.000;0.000;2023-07-28T05:46:41;4.70;;;1.40;;
28958;SDS011;16066;0.000;0.000;2023-07-28T05:49:07;3.43;;;1.20;;
28958;SDS011;16066;0.000;0.000;2023-07-28T05:51:32;1.57;;;1.30;;
28958;SDS011;16066;0.000;0.000;2023-07-28T05:53:58;1.40;;;1.20;;
28958;SDS011;16066;0.000;0.000;2023-07-28T05:56:23;6.93;;;1.33;;
28958;SDS011;16066;0.000;0.000;2023-07-28T05:58:49;1.47;;;1.37;;
28958;SDS011;16066;0.000;0.000;2023-07-28T06:01:15;3.40;;;1.80;;
28958;SDS011;16066;0.000;0.000;2023-07-28T06:03:41;5.13;;;2.00;;
28958;SDS011;16066;0.000;0.000;2023-07-28T06:06:06;3.43;;;1.50;;
28958;SDS011;16066;0.000;0.000;2023-07-28T06:08:32;2.17;;;1.50;;
28958;SDS011;16066;0.000;0.000;2023-07-28T06:10:59;2.93;;;1.73;;
28958;SDS011;16066;0.000;0.000;2023-07-28T06:13:24;1.63;;;1.53;;
28958;SDS011;16066;0.000;0.000;2023-07-28T06:15:50;4.27;;;1.83;;
28958;SDS011;16066;0.000;0.000;2023-07-28T06:18:18;3.07;;;1.57;;
28958;SDS011;16066;0.000;0.000;2023-07-28T06:20:43;2.53;;;1.67;;
28958;SDS011;16066;0.000;0.000;2023-07-28T06:23:09;1.60;;;1.50;;
28958;SDS011;16066;0.000;0.000;2023-07-28T06:25:34;2.03;;;1.83;;
28958;SDS011;16066;0.000;0.000;2023-07-28T06:28:01;2.17;;;1.40;;
28958;SDS011;16066;0.000;0.000;2023-07-28T06:30:27;1.60;;;1.50;;
28958;SDS011;16066;0.000;0.000;2023-07-28T06:32:52;1.63;;;1.43;;
28958;SDS011;16066;0.000;0.000;2023-07-28T06:35:18;2.80;;;1.33;;
28958;SDS011;16066;0.000;0.000;2023-07-28T06:37:43;1.57;;;1.47;;
28958;SDS011;16066;0.000;0.000;2023-07-28T06:40:09;2.80;;;1.90;;
28958;SDS011;16066;0.000;0.000;2023-07-28T06:42:35;1.80;;;1.70;;
28958;SDS011;16066;0.000;0.000;2023-07-28T06:45:01;1.70;;;1.50;;
28958;SDS011;16066;0.000;0.000;2023-07-28T06:47:27;1.90;;;1.80;;
28958;SDS011;16066;0.000;0.000;2023-07-28T06:49:53;1.50;;;1.40;;
28958;SDS011;16066;0.000;0.000;2023-07-28T06:52:18;2.10;;;1.90;;
28958;SDS011;16066;0.000;0.000;2023-07-28T06:54:44;2.10;;;1.70;;
28958;SDS011;16066;0.000;0.000;2023-07-28T06:57:09;2.70;;;1.47;;
28958;SDS011;16066;0.000;0.000;2023-07-28T06:59:35;1.90;;;1.53;;
28958;SDS011;16066;0.000;0.000;2023-07-28T07:02:00;3.40;;;1.40;;
28958;SDS011;16066;0.000;0.000;2023-07-28T07:04:26;2.00;;;1.80;;
28958;SDS011;16066;0.000;0.000;2023-07-28T07:06:51;2.17;;;1.77;;
28958;SDS011;16066;0.000;0.000;2023-07-28T07:09:17;5.53;;;2.13;;
28958;SDS011;16066;0.000;0.000;2023-07-28T07:11:42;1.70;;;1.60;;
28958;SDS011;16066;0.000;0.000;2023-07-28T07:14:08;2.17;;;1.70;;
28958;SDS011;16066;0.000;0.000;2023-07-28T07:16:33;2.00;;;1.80;;
28958;SDS011;16066;0.000;0.000;2023-07-28T07:18:59;1.90;;;1.80;;
28958;SDS011;16066;0.000;0.000;2023-07-28T07:21:26;1.70;;;1.60;;
28958;SDS011;16066;0.000;0.000;2023-07-28T07:23:52;2.80;;;1.63;;
28958;SDS011;16066;0.000;0.000;2023-07-28T07:26:18;1.80;;;1.70;;
28958;SDS011;16066;0.000;0.000;2023-07-28T07:28:43;7.00;;;1.50;;
28958;SDS011;16066;0.000;0.000;2023-07-28T07:31:15;8.83;;;1.47;;
28958;SDS011;16066;0.000;0.000;2023-07-28T07:33:41;8.73;;;1.60;;
28958;SDS011;16066;0.000;0.000;2023-07-28T07:36:14;2.23;;;1.80;;
28958;SDS011;16066;0.000;0.000;2023-07-28T07:38:40;2.00;;;1.63;;
28958;SDS011;16066;0.000;0.000;2023-07-28T07:41:06;1.70;;;1.60;;
28958;SDS011;16066;0.000;0.000;2023-07-28T07:43:33;3.93;;;1.93;;
28958;SDS011;16066;0.000;0.000;2023-07-28T07:45:59;1.93;;;1.73;;
28958;SDS011;16066;0.000;0.000;2023-07-28T07:48:24;2.17;;;1.80;;
28958;SDS011;16066;0.000;0.000;2023-07-28T07:50:50;2.57;;;2.00;;
28958;SDS011;16066;0.000;0.000;2023-07-28T07:53:16;2.60;;;1.70;;
28958;SDS011;16066;0.000;0.000;2023-07-28T07:55:42;1.50;;;1.40;;
28958;SDS011;16066;0.000;0.000;2023-07-28T07:58:07;1.80;;;1.70;;
28958;SDS011;16066;0.000;0.000;2023-07-28T08:00:33;2.60;;;2.17;;
28958;SDS011;16066;0.000;0.000;2023-07-28T08:02:59;1.83;;;1.67;;
28958;SDS011;16066;0.000;0.000;2023-07-28T08:05:24;1.80;;;1.70;;
28958;SDS011;16066;0.000;0.000;2023-07-28T08:07:50;2.30;;;1.77;;
28958;SDS011;16066;0.000;0.000;2023-07-28T08:10:15;2.00;;;1.80;;
28958;SDS011;16066;0.000;0.000;2023-07-28T08:12:42;1.77;;;1.50;;
28958;SDS011;16066;0.000;0.000;2023-07-28T08:15:09;1.50;;;1.40;;
28958;SDS011;16066;0.000;0.000;2023-07-28T08:17:35;1.47;;;1.37;;
28958;SDS011;16066;0.000;0.000;2023-07-28T08:20:01;1.70;;;1.60;;
28958;SDS011;16066;0.000;0.000;2023-07-28T08:22:26;1.50;;;1.40;;
28958;SDS011;16066;0.000;0.000;2023-07-28T08:24:52;2.07;;;1.70;;
28958;SDS011;16066;0.000;0.000;2023-07-28T08:27:17;1.43;;;1.33;;
28958;SDS011;16066;0.000;0.000;2023-07-28T08:29:43;1.93;;;1.70;;
28958;SDS011;16066;0.000;0.000;2023-07-28T08:32:09;2.00;;;1.80;;
28958;SDS011;16066;0.000;0.000;2023-07-28T08:34:34;2.60;;;1.83;;
28958;SDS011;16066;0.000;0.000;2023-07-28T08:37:00;2.77;;;2.40;;
28958;SDS011;16066;0.000;0.000;2023-07-28T08:39:25;2.53;;;2.10;;
28958;SDS011;16066;0.000;0.000;2023-07-28T08:42:00;2.27;;;1.90;;
28958;SDS011;16066;0.000;0.000;2023-07-28T08:44:28;3.47;;;1.80;;
28958;SDS011;16066;0.000;0.000;2023-07-28T08:46:55;2.80;;;2.13;;
28958;SDS011;16066;0.000;0.000;2023-07-28T08:49:21;2.83;;;2.03;;
28958;SDS011;16066;0.000;0.000;2023-07-28T08:51:50;5.83;;;2.37;;
28958;SDS011;16066;0.000;0.000;2023-07-28T08:54:15;2.70;;;2.30;;
28958;SDS011;16066;0.000;0.000;2023-07-28T08:56:44;2.57;;;2.37;;
28958;SDS011;16066;0.000;0.000;2023-07-28T08:59:10;3.33;;;3.03;;
28958;SDS011;16066;0.000;0.000;2023-07-28T09:01:39;2.67;;;2.47;;
28958;SDS011;16066;0.000;0.000;2023-07-28T09:04:09;4.57;;;2.70;;
28958;SDS011;16066;0.000;0.000;2023-07-28T09:06:35;3.67;;;3.37;;
28958;SDS011;16066;0.000;0.000;2023-07-28T09:09:01;11.03;;;2.60;;
28958;SDS011;16066;0.000;0.000;2023-07-28T09:11:27;4.77;;;3.50;;
28958;SDS011;16066;0.000;0.000;2023-07-28T09:13:53;3.67;;;3.20;;
28958;SDS011;16066;0.000;0.000;2023-07-28T09:16:20;2.63;;;2.43;;
28958;SDS011;16066;0.000;0.000;2023-07-28T09:18:47;3.60;;;3.20;;
28958;SDS011;16066;0.000;0.000;2023-07-28T09:21:18;4.87;;;3.00;;
28958;SDS011;16066;0.000;0.000;2023-07-28T09:23:46;3.37;;;2.80;;
28958;SDS011;16066;0.000;0.000;2023-07-28T09:26:12;3.33;;;3.00;;
28958;SDS011;16066;0.000;0.000;2023-07-28T09:28:39;2.77;;;2.57;;
28958;SDS011;16066;0.000;0.000;2023-07-28T09:31:06;4.20;;;3.80;;
28958;SDS011;16066;0.000;0.000;2023-07-28T09:33:33;4.20;;;3.80;;
28958;SDS011;16066;0.000;0.000;2023-07-28T09:36:09;4.00;;;3.60;;
28958;SDS011;16066;0.000;0.000;2023-07-28T09:38:37;4.00;;;3.53;;
28958;SDS011;16066;0.000;0.000;2023-07-28T09:41:07;5.97;;;3.67;;
28958;SDS011;16066;0.000;0.000;2023-07-28T09:43:38;3.60;;;3.30;;
28958;SDS011;16066;0.000;0.000;2023-07-28T09:46:06;3.87;;;3.57;;
28958;SDS011;16066;0.000;0.000;2023-07-28T09:48:33;3.90;;;3.60;;
28958;SDS011;16066;0.000;0.000;2023-07-28T09:51:01;3.87;;;3.47;;
28958;SDS011;16066;0.000;0.000;2023-07-28T09:53:34;3.60;;;3.30;;
28958;SDS011;16066;0.000;0.000;2023-07-28T09:56:09;4.70;;;2.93;;
28958;SDS011;16066;0.000;0.000;2023-07-28T09:58:39;4.03;;;3.10;;
28958;SDS011;16066;0.000;0.000;2023-07-28T10:01:08;3.57;;;3.27;;
28958;SDS011;16066;0.000;0.000;2023-07-28T10:03:35;5.43;;;3.00;;
28958;SDS011;16066;0.000;0.000;2023-07-28T10:06:02;4.30;;;2.97;;
28958;SDS011;16066;0.000;0.000;2023-07-28T10:08:27;3.03;;;2.73;;
28958;SDS011;16066;0.000;0.000;2023-07-28T10:10:54;3.50;;;3.20;;
28958;SDS011;16066;0.000;0.000;2023-07-28T10:13:20;3.17;;;2.87;;
28958;SDS011;16066;0.000;0.000;2023-07-28T10:15:47;4.10;;;3.00;;
28958;SDS011;16066;0.000;0.000;2023-07-28T10:18:15;3.43;;;2.87;;
28958;SDS011;16066;0.000;0.000;2023-07-28T10:20:44;3.50;;;3.20;;
28958;SDS011;16066;0.000;0.000;2023-07-28T10:23:14;2.97;;;2.67;;
28958;SDS011;16066;0.000;0.000;2023-07-28T10:25:42;2.90;;;2.70;;
28958;SDS011;16066;0.000;0.000;2023-07-28T10:28:28;4.10;;;2.40;;
28958;SDS011;16066;0.000;0.000;2023-07-28T10:30:56;3.60;;;2.80;;
28958;SDS011;16066;0.000;0.000;2023-07-28T10:33:36;3.17;;;2.13;;
28958;SDS011;16066;0.000;0.000;2023-07-28T10:38:59;2.77;;;2.57;;
28958;SDS011;16066;0.000;0.000;2023-07-28T10:41:25;6.57;;;2.80;;
28958;SDS011;16066;0.000;0.000;2023-07-28T10:43:51;3.63;;;2.37;;
28958;SDS011;16066;0.000;0.000;2023-07-28T10:46:17;10.37;;;3.00;;
28958;SDS011;16066;0.000;0.000;2023-07-28T10:48:46;3.67;;;2.63;;
28958;SDS011;16066;0.000;0.000;2023-07-28T10:51:23;2.30;;;2.10;;
28958;SDS011;16066;0.000;0.000;2023-07-28T10:53:58;7.57;;;2.97;;
28958;SDS011;16066;0.000;0.000;2023-07-28T10:56:25;3.07;;;2.87;;
28958;SDS011;16066;0.000;0.000;2023-07-28T10:58:57;2.70;;;2.20;;
28958;SDS011;16066;0.000;0.000;2023-07-28T11:01:36;4.07;;;2.60;;
28958;SDS011;16066;0.000;0.000;2023-07-28T11:06:32;3.67;;;2.60;;
28958;SDS011;16066;0.000;0.000;2023-07-28T11:08:57;3.73;;;2.63;;
28958;SDS011;16066;0.000;0.000;2023-07-28T11:11:23;3.03;;;2.57;;
28958;SDS011;16066;0.000;0.000;2023-07-28T11:13:48;7.50;;;2.60;;
28958;SDS011;16066;0.000;0.000;2023-07-28T11:16:14;6.70;;;2.80;;
28958;SDS011;16066;0.000;0.000;2023-07-28T11:18:39;2.60;;;2.40;;
28958;SDS011;16066;0.000;0.000;2023-07-28T11:21:05;3.87;;;2.67;;
28958;SDS011;16066;0.000;0.000;2023-07-28T11:23:31;3.87;;;2.23;;
28958;SDS011;16066;0.000;0.000;2023-07-28T11:25:56;4.73;;;2.40;;
28958;SDS011;16066;0.000;0.000;2023-07-28T11:28:22;2.73;;;2.53;;
28958;SDS011;16066;0.000;0.000;2023-07-28T11:30:47;2.93;;;2.27;;
28958;SDS011;16066;0.000;0.000;2023-07-28T11:33:13;2.87;;;2.43;;
28958;SDS011;16066;0.000;0.000;2023-07-28T11:35:39;3.20;;;2.90;;
28958;SDS011;16066;0.000;0.000;2023-07-28T11:38:05;2.73;;;2.53;;
28958;SDS011;16066;0.000;0.000;2023-07-28T11:40:32;11.37;;;2.73;;
28958;SDS011;16066;0.000;0.000;2023-07-28T11:42:58;3.70;;;2.90;;
28958;SDS011;16066;0.000;0.000;2023-07-28T11:45:24;2.80;;;2.60;;
28958;SDS011;16066;0.000;0.000;2023-07-28T11:48:03;2.60;;;2.23;;
28958;SDS011;16066;0.000;0.000;2023-07-28T11:50:37;2.63;;;2.33;;
28958;SDS011;16066;0.000;0.000;2023-07-28T11:53:04;3.07;;;2.43;;
28958;SDS011;16066;0.000;0.000;2023-07-28T11:55:31;2.50;;;2.30;;
28958;SDS011;16066;0.000;0.000;2023-07-28T11:57:58;3.07;;;2.83;;
28958;SDS011;16066;0.000;0.000;2023-07-28T12:00:30;2.40;;;2.20;;
28958;SDS011;16066;0.000;0.000;2023-07-28T12:03:06;3.00;;;2.70;;
28958;SDS011;16066;0.000;0.000;2023-07-28T12:05:34;3.03;;;2.40;;
28958;SDS011;16066;0.000;0.000;2023-07-28T12:08:01;3.27;;;2.97;;
28958;SDS011;16066;0.000;0.000;2023-07-28T12:10:28;3.20;;;2.97;;
28958;SDS011;16066;0.000;0.000;2023-07-28T12:12:53;3.90;;;2.73;;
28958;SDS011;16066;0.000;0.000;2023-07-28T12:15:20;4.73;;;2.57;;
28958;SDS011;16066;0.000;0.000;2023-07-28T12:18:27;2.97;;;2.77;;
28958;SDS011;16066;0.000;0.000;2023-07-28T12:20:45;3.47;;;2.80;;
28958;SDS011;16066;0.000;0.000;2023-07-28T12:23:13;3.00;;;2.37;;
28958;SDS011;16066;0.000;0.000;2023-07-28T12:25:43;4.23;;;2.47;;
28958;SDS011;16066;0.000;0.000;2023-07-28T12:28:09;2.73;;;2.50;;
28958;SDS011;16066;0.000;0.000;2023-07-28T12:30:35;3.30;;;2.90;;
28958;SDS011;16066;0.000;0.000;2023-07-28T12:33:02;5.83;;;2.37;;
28958;SDS011;16066;0.000;0.000;2023-07-28T12:35:29;3.43;;;2.87;;
28958;SDS011;16066;0.000;0.000;2023-07-28T12:37:57;4.30;;;3.17;;
28958;SDS011;16066;0.000;0.000;2023-07-28T12:40:24;3.40;;;2.70;;
28958;SDS011;16066;0.000;0.000;2023-07-28T12:42:51;3.67;;;3.10;;
28958;SDS011;16066;0.000;0.000;2023-07-28T12:45:16;2.97;;;2.70;;
28958;SDS011;16066;0.000;0.000;2023-07-28T12:47:42;3.17;;;2.87;;
28958;SDS011;16066;0.000;0.000;2023-07-28T12:50:08;2.80;;;2.60;;
28958;SDS011;16066;0.000;0.000;2023-07-28T12:52:35;2.53;;;2.33;;
28958;SDS011;16066;0.000;0.000;2023-07-28T12:55:01;3.00;;;2.70;;
28958;SDS011;16066;0.000;0.000;2023-07-28T12:57:27;6.53;;;2.90;;
28958;SDS011;16066;0.000;0.000;2023-07-28T12:59:52;2.70;;;2.50;;
28958;SDS011;16066;0.000;0.000;2023-07-28T13:02:18;2.63;;;2.43;;
28958;SDS011;16066;0.000;0.000;2023-07-28T13:04:43;3.90;;;2.87;;
28958;SDS011;16066;0.000;0.000;2023-07-28T13:07:09;3.90;;;2.97;;
28958;SDS011;16066;0.000;0.000;2023-07-28T13:09:34;2.93;;;2.63;;
28958;SDS011;16066;0.000;0.000;2023-07-28T13:12:00;2.43;;;2.23;;
28958;SDS011;16066;0.000;0.000;2023-07-28T13:14:25;2.90;;;2.60;;
28958;SDS011;16066;0.000;0.000;2023-07-28T13:16:51;4.07;;;2.70;;
28958;SDS011;16066;0.000;0.000;2023-07-28T13:19:16;2.80;;;2.60;;
28958;SDS011;16066;0.000;0.000;2023-07-28T13:21:42;3.10;;;2.73;;
28958;SDS011;16066;0.000;0.000;2023-07-28T13:24:08;7.53;;;2.73;;
28958;SDS011;16066;0.000;0.000;2023-07-28T13:26:33;3.20;;;2.90;;
28958;SDS011;16066;0.000;0.000;2023-07-28T13:28:59;3.37;;;2.87;;
28958;SDS011;16066;0.000;0.000;2023-07-28T13:31:26;5.17;;;3.47;;
28958;SDS011;16066;0.000;0.000;2023-07-28T13:33:52;5.20;;;3.27;;
28958;SDS011;16066;0.000;0.000;2023-07-28T13:36:18;3.50;;;2.90;;
28958;SDS011;16066;0.000;0.000;2023-07-28T13:38:43;3.00;;;2.70;;
28958;SDS011;16066;0.000;0.000;2023-07-28T13:41:09;3.30;;;2.90;;
28958;SDS011;16066;0.000;0.000;2023-07-28T13:43:35;3.87;;;2.83;;
28958;SDS011;16066;0.000;0.000;2023-07-28T13:46:02;3.47;;;3.17;;
28958;SDS011;16066;0.000;0.000;2023-07-28T13:48:31;3.43;;;2.90;;
28958;SDS011;16066;0.000;0.000;2023-07-28T13:50:57;4.00;;;3.00;;
28958;SDS011;16066;0.000;0.000;2023-07-28T13:53:23;4.53;;;3.00;;
28958;SDS011;16066;0.000;0.000;2023-07-28T13:55:50;4.47;;;3.37;;
28958;SDS011;16066;0.000;0.000;2023-07-28T13:58:15;3.60;;;2.90;;
28958;SDS011;16066;0.000;0.000;2023-07-28T14:00:41;4.30;;;3.20;;
28958;SDS011;16066;0.000;0.000;2023-07-28T14:03:07;5.17;;;3.60;;
28958;SDS011;16066;0.000;0.000;2023-07-28T14:05:32;4.60;;;3.13;;
28958;SDS011;16066;0.000;0.000;2023-07-28T14:07:58;4.10;;;3.13;;
28958;SDS011;16066;0.000;0.000;2023-07-28T14:10:23;5.37;;;3.50;;
28958;SDS011;16066;0.000;0.000;2023-07-28T14:12:49;3.90;;;3.33;;
28958;SDS011;16066;0.000;0.000;2023-07-28T14:15:15;4.70;;;3.80;;
28958;SDS011;16066;0.000;0.000;2023-07-28T14:17:40;4.67;;;3.63;;
28958;SDS011;16066;0.000;0.000;2023-07-28T14:20:06;3.53;;;3.10;;
28958;SDS011;16066;0.000;0.000;2023-07-28T14:22:33;3.63;;;3.30;;
28958;SDS011;16066;0.000;0.000;2023-07-28T14:24:58;3.93;;;3.47;;
28958;SDS011;16066;0.000;0.000;2023-07-28T14:27:24;7.37;;;3.20;;
28958;SDS011;16066;0.000;0.000;2023-07-28T14:29:50;7.70;;;3.20;;
28958;SDS011;16066;0.000;0.000;2023-07-28T14:32:15;4.40;;;3.60;;
28958;SDS011;16066;0.000;0.000;2023-07-28T14:34:41;3.37;;;3.07;;
28958;SDS011;16066;0.000;0.000;2023-07-28T14:37:06;4.17;;;3.30;;
28958;SDS011;16066;0.000;0.000;2023-07-28T14:39:32;4.40;;;3.50;;
28958;SDS011;16066;0.000;0.000;2023-07-28T14:41:57;5.80;;;3.70;;
28958;SDS011;16066;0.000;0.000;2023-07-28T14:44:23;4.20;;;3.40;;
28958;SDS011;16066;0.000;0.000;2023-07-28T14:46:48;4.30;;;3.87;;
28958;SDS011;16066;0.000;0.000;2023-07-28T14:49:14;4.47;;;3.43;;
28958;SDS011;16066;0.000;0.000;2023-07-28T14:51:39;5.07;;;4.00;;
28958;SDS011;16066;0.000;0.000;2023-07-28T14:54:05;5.07;;;3.47;;
28958;SDS011;16066;0.000;0.000;2023-07-28T14:56:31;4.20;;;3.80;;
28958;SDS011;16066;0.000;0.000;2023-07-28T14:58:57;4.60;;;4.10;;
28958;SDS011;16066;0.000;0.000;2023-07-28T15:01:25;5.13;;;3.73;;
28958;SDS011;16066;0.000;0.000;2023-07-28T15:03:51;6.17;;;4.70;;
28958;SDS011;16066;0.000;0.000;2023-07-28T15:06:17;6.40;;;5.70;;
28958;SDS011;16066;0.000;0.000;2023-07-28T15:08:42;5.57;;;5.00;;
28958;SDS011;16066;0.000;0.000;2023-07-28T15:11:08;6.47;;;5.30;;
28958;SDS011;16066;0.000;0.000;2023-07-28T15:13:33;6.10;;;5.50;;
28958;SDS011;16066;0.000;0.000;2023-07-28T15:15:59;5.60;;;5.00;;
28958;SDS011;16066;0.000;0.000;2023-07-28T15:18:25;6.23;;;5.60;;
28958;SDS011;16066;0.000;0.000;2023-07-28T15:20:50;5.47;;;4.97;;
28958;SDS011;16066;0.000;0.000;2023-07-28T15:23:17;5.00;;;4.50;;
28958;SDS011;16066;0.000;0.000;2023-07-28T15:25:42;5.30;;;4.27;;
28958;SDS011;16066;0.000;0.000;2023-07-28T15:28:10;4.87;;;4.40;;
28958;SDS011;16066;0.000;0.000;2023-07-28T15:30:39;4.47;;;4.07;;
28958;SDS011;16066;0.000;0.000;2023-07-28T15:33:07;5.10;;;4.23;;
28958;SDS011;16066;0.000;0.000;2023-07-28T15:35:32;5.17;;;4.63;;
28958;SDS011;16066;0.000;0.000;2023-07-28T15:37:58;4.93;;;3.80;;
28958;SDS011;16066;0.000;0.000;2023-07-28T15:40:24;4.90;;;4.33;;
28958;SDS011;16066;0.000;0.000;2023-07-28T15:42:49;5.10;;;4.60;;
28958;SDS011;16066;0.000;0.000;2023-07-28T15:45:15;4.47;;;4.03;;
28958;SDS011;16066;0.000;0.000;2023-07-28T15:47:40;7.53;;;4.13;;
28958;SDS011;16066;0.000;0.000;2023-07-28T15:50:06;5.53;;;4.67;;
28958;SDS011;16066;0.000;0.000;2023-07-28T15:52:32;4.80;;;4.33;;
28958;SDS011;16066;0.000;0.000;2023-07-28T15:54:58;6.43;;;4.80;;
28958;SDS011;16066;0.000;0.000;2023-07-28T15:57:24;4.40;;;3.80;;
28958;SDS011;16066;0.000;0.000;2023-07-28T15:59:49;6.93;;;3.90;;
28958;SDS011;16066;0.000;0.000;2023-07-28T16:02:15;4.93;;;3.40;;
28958;SDS011;16066;0.000;0.000;2023-07-28T16:04:40;2.13;;;1.93;;
28958;SDS011;16066;0.000;0.000;2023-07-28T16:07:06;2.63;;;2.17;;
28958;SDS011;16066;0.000;0.000;2023-07-28T16:09:32;2.37;;;1.90;;
28958;SDS011;16066;0.000;0.000;2023-07-28T16:11:58;2.43;;;1.97;;
28958;SDS011;16066;0.000;0.000;2023-07-28T16:14:23;1.70;;;1.53;;
28958;SDS011;16066;0.000;0.000;2023-07-28T16:16:49;1.83;;;1.30;;
28958;SDS011;16066;0.000;0.000;2023-07-28T16:19:15;3.10;;;1.80;;
28958;SDS011;16066;0.000;0.000;2023-07-28T16:21:40;2.10;;;1.70;;
28958;SDS011;16066;0.000;0.000;2023-07-28T16:24:06;3.10;;;1.50;;
28958;SDS011;16066;0.000;0.000;2023-07-28T16:26:32;2.47;;;1.70;;
28958;SDS011;16066;0.000;0.000;2023-07-28T16:28:58;1.50;;;1.40;;
28958;SDS011;16066;0.000;0.000;2023-07-28T16:31:23;2.30;;;1.53;;
28958;SDS011;16066;0.000;0.000;2023-07-28T16:33:49;2.03;;;1.80;;
28958;SDS011;16066;0.000;0.000;2023-07-28T16:36:14;2.00;;;1.70;;
28958;SDS011;16066;0.000;0.000;2023-07-28T16:38:40;2.30;;;2.10;;
28958;SDS011;16066;0.000;0.000;2023-07-28T16:41:05;1.83;;;1.53;;
28958;SDS011;16066;0.000;0.000;2023-07-28T16:43:31;2.07;;;1.77;;
28958;SDS011;16066;0.000;0.000;2023-07-28T16:45:56;2.57;;;1.80;;
28958;SDS011;16066;0.000;0.000;2023-07-28T16:48:22;3.33;;;2.10;;
28958;SDS011;16066;0.000;0.000;2023-07-28T16:50:47;2.50;;;2.10;;
28958;SDS011;16066;0.000;0.000;2023-07-28T16:53:13;2.40;;;2.10;;
28958;SDS011;16066;0.000;0.000;2023-07-28T16:55:38;5.87;;;2.47;;
28958;SDS011;16066;0.000;0.000;2023-07-28T16:58:04;3.30;;;1.80;;
28958;SDS011;16066;0.000;0.000;2023-07-28T17:00:30;4.00;;;2.10;;
28958;SDS011;16066;0.000;0.000;2023-07-28T17:02:55;2.20;;;2.00;;
28958;SDS011;16066;0.000;0.000;2023-07-28T17:05:23;1.93;;;1.60;;
28958;SDS011;16066;0.000;0.000;2023-07-28T17:07:50;2.20;;;2.00;;
28958;SDS011;16066;0.000;0.000;2023-07-28T17:10:15;1.70;;;1.57;;
28958;SDS011;16066;0.000;0.000;2023-07-28T17:12:41;1.87;;;1.50;;
28958;SDS011;16066;0.000;0.000;2023-07-28T17:15:07;1.70;;;1.50;;
28958;SDS011;16066;0.000;0.000;2023-07-28T17:17:33;1.53;;;1.30;;
28958;SDS011;16066;0.000;0.000;2023-07-28T17:19:58;1.73;;;1.60;;
28958;SDS011;16066;0.000;0.000;2023-07-28T17:22:24;2.60;;;1.40;;
28958;SDS011;16066;0.000;0.000;2023-07-28T17:24:49;2.33;;;1.70;;
28958;SDS011;16066;0.000;0.000;2023-07-28T17:27:16;1.80;;;1.57;;
28958;SDS011;16066;0.000;0.000;2023-07-28T17:29:41;1.33;;;1.20;;
28958;SDS011;16066;0.000;0.000;2023-07-28T17:32:07;2.00;;;1.70;;
28958;SDS011;16066;0.000;0.000;2023-07-28T17:34:35;1.70;;;1.60;;
28958;SDS011;16066;0.000;0.000;2023-07-28T17:37:01;3.47;;;1.60;;
28958;SDS011;16066;0.000;0.000;2023-07-28T17:39:27;1.70;;;1.60;;
28958;SDS011;16066;0.000;0.000;2023-07-28T17:41:52;1.73;;;1.60;;
28958;SDS011;16066;0.000;0.000;2023-07-28T17:44:18;1.90;;;1.60;;
28958;SDS011;16066;0.000;0.000;2023-07-28T17:46:44;1.70;;;1.60;;
28958;SDS011;16066;0.000;0.000;2023-07-28T17:49:09;1.60;;;1.50;;
28958;SDS011;16066;0.000;0.000;2023-07-28T17:51:35;2.00;;;1.63;;
28958;SDS011;16066;0.000;0.000;2023-07-28T17:54:01;1.90;;;1.80;;
28958;SDS011;16066;0.000;0.000;2023-07-28T17:56:27;2.00;;;1.77;;
28958;SDS011;16066;0.000;0.000;2023-07-28T17:58:52;2.20;;;1.70;;
28958;SDS011;16066;0.000;0.000;2023-07-28T18:01:18;1.70;;;1.60;;
28958;SDS011;16066;0.000;0.000;2023-07-28T18:03:43;3.67;;;1.73;;
28958;SDS011;16066;0.000;0.000;2023-07-28T18:06:09;2.03;;;1.90;;
28958;SDS011;16066;0.000;0.000;2023-07-28T18:08:35;2.63;;;2.03;;
28958;SDS011;16066;0.000;0.000;2023-07-28T18:11:00;2.87;;;2.10;;
28958;SDS011;16066;0.000;0.000;2023-07-28T18:13:26;3.50;;;2.53;;
28958;SDS011;16066;0.000;0.000;2023-07-28T18:15:52;3.90;;;2.13;;
28958;SDS011;16066;0.000;0.000;2023-07-28T18:18:17;6.93;;;2.33;;
28958;SDS011;16066;0.000;0.000;2023-07-28T18:20:43;3.00;;;2.03;;
28958;SDS011;16066;0.000;0.000;2023-07-28T18:23:08;2.50;;;1.90;;
28958;SDS011;16066;0.000;0.000;2023-07-28T18:25:34;3.60;;;2.30;;
28958;SDS011;16066;0.000;0.000;2023-07-28T18:27:59;2.47;;;2.10;;
28958;SDS011;16066;0.000;0.000;2023-07-28T18:30:26;3.13;;;2.40;;
28958;SDS011;16066;0.000;0.000;2023-07-28T18:32:52;3.77;;;2.10;;
28958;SDS011;16066;0.000;0.000;2023-07-28T18:35:18;4.37;;;2.30;;
28958;SDS011;16066;0.000;0.000;2023-07-28T18:37:43;2.03;;;1.80;;
28958;SDS011;16066;0.000;0.000;2023-07-28T18:40:09;2.20;;;2.00;;
28958;SDS011;16066;0.000;0.000;2023-07-28T18:42:35;2.40;;;1.80;;
28958;SDS011;16066;0.000;0.000;2023-07-28T18:45:00;2.63;;;1.83;;
28958;SDS011;16066;0.000;0.000;2023-07-28T18:47:26;2.30;;;2.07;;
28958;SDS011;16066;0.000;0.000;2023-07-28T18:49:51;2.50;;;2.20;;
28958;SDS011;16066;0.000;0.000;2023-07-28T18:52:17;3.50;;;2.37;;
28958;SDS011;16066;0.000;0.000;2023-07-28T18:54:42;2.40;;;2.10;;
28958;SDS011;16066;0.000;0.000;2023-07-28T18:57:08;3.10;;;2.23;;
28958;SDS011;16066;0.000;0.000;2023-07-28T18:59:33;3.90;;;2.40;;
28958;SDS011;16066;0.000;0.000;2023-07-28T19:01:59;5.53;;;2.90;;
28958;SDS011;16066;0.000;0.000;2023-07-28T19:04:25;3.10;;;2.13;;
28958;SDS011;16066;0.000;0.000;2023-07-28T19:06:50;5.80;;;3.00;;
28958;SDS011;16066;0.000;0.000;2023-07-28T19:09:16;3.47;;;2.50;;
28958;SDS011;16066;0.000;0.000;2023-07-28T19:11:41;4.10;;;2.70;;
28958;SDS011;16066;0.000;0.000;2023-07-28T19:14:07;4.97;;;2.40;;
28958;SDS011;16066;0.000;0.000;2023-07-28T19:16:33;2.73;;;2.10;;
28958;SDS011;16066;0.000;0.000;2023-07-28T19:18:58;3.53;;;2.13;;
28958;SDS011;16066;0.000;0.000;2023-07-28T19:21:24;2.67;;;2.10;;
28958;SDS011;16066;0.000;0.000;2023-07-28T19:23:50;5.30;;;2.40;;
28958;SDS011;16066;0.000;0.000;2023-07-28T19:26:16;2.50;;;2.20;;
28958;SDS011;16066;0.000;0.000;2023-07-28T19:28:42;3.13;;;2.23;;
28958;SDS011;16066;0.000;0.000;2023-07-28T19:31:08;2.97;;;2.60;;
28958;SDS011;16066;0.000;0.000;2023-07-28T19:33:34;3.30;;;2.70;;
28958;SDS011;16066;0.000;0.000;2023-07-28T19:36:00;2.30;;;2.10;;
28958;SDS011;16066;0.000;0.000;2023-07-28T19:38:26;3.23;;;2.57;;
28958;SDS011;16066;0.000;0.000;2023-07-28T19:40:51;2.93;;;2.60;;
28958;SDS011;16066;0.000;0.000;2023-07-28T19:43:17;3.53;;;2.50;;
28958;SDS011;16066;0.000;0.000;2023-07-28T19:45:43;2.83;;;2.20;;
28958;SDS011;16066;0.000;0.000;2023-07-28T19:48:10;3.83;;;2.77;;
28958;SDS011;16066;0.000;0.000;2023-07-28T19:50:36;2.50;;;2.30;;
28958;SDS011;16066;0.000;0.000;2023-07-28T19:53:02;3.90;;;2.87;;
28958;SDS011;16066;0.000;0.000;2023-07-28T19:55:28;7.13;;;3.20;;
28958;SDS011;16066;0.000;0.000;2023-07-28T19:57:54;5.20;;;2.90;;
28958;SDS011;16066;0.000;0.000;2023-07-28T20:00:19;7.80;;;3.53;;
28958;SDS011;16066;0.000;0.000;2023-07-28T20:02:45;7.07;;;5.17;;
28958;SDS011;16066;0.000;0.000;2023-07-28T20:05:11;5.43;;;3.20;;
28958;SDS011;16066;0.000;0.000;2023-07-28T20:07:37;3.80;;;2.50;;
28958;SDS011;16066;0.000;0.000;2023-07-28T20:10:02;4.07;;;3.20;;
28958;SDS011;16066;0.000;0.000;2023-07-28T20:12:28;6.37;;;3.07;;
28958;SDS011;16066;0.000;0.000;2023-07-28T20:14:55;3.13;;;2.67;;
28958;SDS011;16066;0.000;0.000;2023-07-28T20:17:21;2.93;;;2.30;;
28958;SDS011;16066;0.000;0.000;2023-07-28T20:19:47;3.10;;;2.77;;
28958;SDS011;16066;0.000;0.000;2023-07-28T20:22:12;3.13;;;2.40;;
28958;SDS011;16066;0.000;0.000;2023-07-28T20:24:38;3.50;;;2.47;;
28958;SDS011;16066;0.000;0.000;2023-07-28T20:27:04;5.20;;;2.40;;
28958;SDS011;16066;0.000;0.000;2023-07-28T20:29:30;3.73;;;2.27;;
28958;SDS011;16066;0.000;0.000;2023-07-28T20:31:57;3.30;;;2.27;;